Time;durP1;ratioP1;P1;durP2;ratioP2;P2;SDS_P1;SDS_P2;PMS_P1;PMS_P2;Temp;Humidity;BMP_temperature;BMP_pressure;BME280_temperature;BME280_humidity;BME280_pressure;Samples;Min_cycle;Max_cycle;Signal;HPM_P1;HPM_P2
2023/06/03 00:01:21;;;;;;;18.73;9.40;;;;;;;16.46;nan;60833.69;4994241;28;20596;-66
2023/06/03 00:03:46;;;;;;;20.20;10.20;;;;;;;16.30;nan;60780.22;4994505;28;20203;-64
2023/06/03 00:06:12;;;;;;;23.98;9.80;;;;;;;15.87;nan;60716.56;4994255;28;20208;-65
2023/06/03 00:08:42;;;;;;;18.08;9.70;;;;;;;15.96;nan;60618.47;4993971;28;20177;-65
2023/06/03 00:11:08;;;;;;;16.33;9.05;;;;;;;15.81;nan;60566.19;4993568;28;20295;-66
2023/06/03 00:13:33;;;;;;;20.13;10.38;;;;;;;16.31;nan;60595.22;4994364;28;20551;-66
2023/06/03 00:15:59;;;;;;;19.05;10.52;;;;;;;16.31;nan;60477.22;4993775;28;20628;-66
2023/06/03 00:18:26;;;;;;;19.65;10.25;;;;;;;15.96;nan;60355.16;4993907;28;20177;-64
2023/06/03 00:20:52;;;;;;;21.92;10.95;;;;;;;16.18;nan;60083.38;4992751;28;20192;-65
2023/06/03 00:23:18;;;;;;;26.10;11.23;;;;;;;16.03;nan;59899.31;4993628;28;20641;-65
2023/06/03 00:25:44;;;;;;;20.73;10.50;;;;;;;16.13;nan;60024.28;4993412;28;20184;-64
2023/06/03 00:28:10;;;;;;;18.40;9.38;;;;;;;15.96;nan;60362.88;4994011;28;20168;-66
2023/06/03 00:30:36;;;;;;;22.00;9.45;;;;;;;15.85;nan;60511.44;4992506;28;20216;-65
2023/06/03 00:33:02;;;;;;;19.45;10.38;;;;;;;16.05;nan;60488.84;4993485;28;20179;-66
2023/06/03 00:35:27;;;;;;;19.70;9.38;;;;;;;15.70;nan;60430.31;4993311;28;20644;-64
2023/06/03 00:37:54;;;;;;;17.98;8.60;;;;;;;15.72;nan;60246.59;4992256;28;20231;-65
2023/06/03 00:40:19;;;;;;;20.10;9.85;;;;;;;15.95;nan;60264.47;4993095;28;20544;-64
2023/06/03 00:42:45;;;;;;;18.25;9.32;;;;;;;15.66;nan;60181.25;4993480;28;20173;-66
2023/06/03 00:45:10;;;;;;;21.67;9.70;;;;;;;15.99;nan;60127.25;4993317;28;20264;-66
2023/06/03 00:47:36;;;;;;;18.23;9.18;;;;;;;15.63;nan;59832.97;4993634;28;20175;-65
2023/06/03 00:50:02;;;;;;;19.45;9.55;;;;;;;15.53;nan;59307.25;4993390;28;20612;-64
2023/06/03 00:52:28;;;;;;;20.55;10.13;;;;;;;15.87;nan;58708.69;4993118;28;20268;-66
2023/06/03 00:54:53;;;;;;;19.73;9.25;;;;;;;15.80;nan;58227.00;4992636;28;20181;-64
2023/06/03 00:57:21;;;;;;;17.15;9.32;;;;;;;15.49;nan;58461.56;4993455;28;20553;-67
2023/06/03 00:59:47;;;;;;;18.52;9.13;;;;;;;15.57;nan;58595.78;4991724;28;20334;-66
2023/06/03 01:02:13;;;;;;;18.52;8.93;;;;;;;15.74;nan;58740.88;4992089;28;20720;-66
2023/06/03 01:04:42;;;;;;;14.27;9.18;;;;;;;15.36;nan;58772.09;4992035;28;20641;-66
2023/06/03 01:07:26;;;;;;;15.30;8.35;;;;;;;15.43;nan;58653.69;4990807;28;20181;-65
2023/06/03 01:10:10;;;;;;;18.02;8.60;;;;;;;15.75;nan;58896.41;4991750;28;20295;-66
2023/06/03 01:13:01;;;;;;;17.67;9.30;;;;;;;15.66;nan;58922.63;4991983;28;20272;-65
2023/06/03 01:15:28;;;;;;;18.80;9.07;;;;;;;15.61;nan;58793.66;4991953;28;20189;-64
2023/06/03 01:17:57;;;;;;;16.75;8.32;;;;;;;15.32;nan;58765.19;4991604;28;20255;-65
2023/06/03 01:20:26;;;;;;;17.65;8.30;;;;;;;15.76;nan;59386.56;4992061;28;20674;-66
2023/06/03 01:22:57;;;;;;;17.25;8.13;;;;;;;15.14;nan;59895.09;4991836;28;20177;-65
2023/06/03 01:25:23;;;;;;;12.00;6.63;;;;;;;15.82;nan;60533.81;4991588;28;20247;-63
2023/06/03 01:27:51;;;;;;;15.70;7.40;;;;;;;15.80;nan;60487.81;4991643;28;20684;-64
2023/06/03 01:30:19;;;;;;;14.35;7.70;;;;;;;15.48;nan;60243.59;4991426;28;20185;-64
2023/06/03 01:32:47;;;;;;;15.73;7.28;;;;;;;15.56;nan;60028.03;4990482;28;20235;-64
2023/06/03 01:35:13;;;;;;;14.15;6.75;;;;;;;15.42;nan;59740.28;4992098;28;20558;-66
2023/06/03 01:37:40;;;;;;;12.73;6.80;;;;;;;15.25;nan;59582.59;4992124;28;20164;-64
2023/06/03 01:40:07;;;;;;;13.18;7.00;;;;;;;15.35;nan;59287.50;4991866;28;20185;-65
2023/06/03 01:42:33;;;;;;;11.77;6.57;;;;;;;15.26;nan;59350.19;4991754;28;20177;-64
2023/06/03 01:45:03;;;;;;;13.50;7.20;;;;;;;15.30;nan;59238.84;4991737;28;20251;-67
2023/06/03 01:47:29;;;;;;;11.65;7.50;;;;;;;15.18;nan;59469.44;4991937;28;20640;-66
2023/06/03 01:49:55;;;;;;;12.02;7.00;;;;;;;15.14;nan;59807.09;4991675;28;20231;-66
2023/06/03 01:52:20;;;;;;;15.30;7.03;;;;;;;14.93;nan;59594.19;4991764;28;20208;-63
2023/06/03 01:54:46;;;;;;;14.48;7.35;;;;;;;15.15;nan;59391.56;4991522;28;20185;-65
2023/06/03 01:57:11;;;;;;;12.75;6.55;;;;;;;15.26;nan;59601.72;4991278;28;20231;-65
2023/06/03 01:59:37;;;;;;;10.77;6.35;;;;;;;15.03;nan;59598.03;4953065;28;1110761;-65
2023/06/03 02:02:03;;;;;;;12.20;6.25;;;;;;;14.13;nan;59466.03;4992009;28;20189;-66
2023/06/03 02:04:28;;;;;;;10.88;6.38;;;;;;;14.95;nan;59637.50;4992303;28;20271;-66
2023/06/03 02:06:58;;;;;;;10.93;5.82;;;;;;;15.13;nan;59814.25;4992600;28;20613;-65
2023/06/03 02:09:24;;;;;;;11.63;6.15;;;;;;;15.28;nan;60012.94;4996269;28;20234;-65
2023/06/03 02:11:51;;;;;;;10.60;6.35;;;;;;;15.35;nan;60165.34;4996187;28;20208;-65
2023/06/03 02:14:17;;;;;;;11.13;6.93;;;;;;;15.29;nan;60174.13;4996563;28;20259;-65
2023/06/03 02:16:43;;;;;;;12.90;7.03;;;;;;;14.79;nan;59902.63;4996437;28;20183;-64
2023/06/03 02:19:20;;;;;;;12.70;6.60;;;;;;;15.00;nan;59684.72;4995946;28;20264;-65
2023/06/03 02:21:47;;;;;;;9.65;5.95;;;;;;;14.97;nan;59542.03;4996431;28;20764;-65
2023/06/03 02:24:16;;;;;;;10.40;5.90;;;;;;;14.66;nan;59377.38;4995900;28;20185;-64
2023/06/03 02:26:53;;;;;;;10.65;5.55;;;;;;;14.92;nan;59271.72;4996113;28;20265;-65
2023/06/03 02:29:19;;;;;;;11.73;6.90;;;;;;;15.07;nan;59318.50;4995837;28;20164;-64
2023/06/03 02:31:46;;;;;;;11.23;5.80;;;;;;;14.78;nan;59125.84;4996338;28;20187;-66
2023/06/03 02:34:12;;;;;;;11.90;6.03;;;;;;;14.99;nan;58891.75;4995700;28;20169;-65
2023/06/03 02:36:40;;;;;;;10.70;6.50;;;;;;;14.92;nan;58488.31;4995949;28;20168;-66
2023/06/03 02:39:07;;;;;;;10.68;6.50;;;;;;;14.99;nan;58132.97;4995653;28;20663;-65
2023/06/03 02:41:33;;;;;;;11.48;6.18;;;;;;;14.90;nan;57766.63;4996197;28;20169;-65
2023/06/03 02:43:58;;;;;;;10.50;6.32;;;;;;;15.10;nan;58337.09;4995709;28;20204;-65
2023/06/03 02:46:24;;;;;;;11.40;6.40;;;;;;;14.91;nan;58694.88;4995688;28;20319;-65
2023/06/03 02:48:49;;;;;;;10.60;6.10;;;;;;;14.76;nan;58265.44;4995476;28;20183;-66
2023/06/03 02:51:15;;;;;;;10.45;5.82;;;;;;;14.73;nan;57912.28;4995468;28;20204;-66
2023/06/03 02:53:40;;;;;;;9.82;6.03;;;;;;;15.10;nan;57840.97;4995377;28;20179;-66
2023/06/03 02:56:05;;;;;;;9.82;5.90;;;;;;;14.98;nan;57880.06;4995406;28;20185;-65
2023/06/03 02:58:31;;;;;;;8.18;5.47;;;;;;;15.30;nan;58171.00;4994398;28;20179;-65
2023/06/03 03:00:57;;;;;;;9.63;6.22;;;;;;;15.38;nan;58908.03;4995157;28;20671;-69
2023/06/03 03:03:24;;;;;;;11.45;6.20;;;;;;;15.37;nan;59019.56;4995368;28;20676;-65
2023/06/03 03:05:51;;;;;;;10.85;6.20;;;;;;;15.79;nan;59274.00;4995512;28;20192;-66
2023/06/03 03:08:17;;;;;;;10.68;6.32;;;;;;;16.17;nan;60110.63;4995807;28;20644;-66
2023/06/03 03:10:42;;;;;;;8.68;5.50;;;;;;;16.54;nan;60700.88;4995712;28;20259;-65
2023/06/03 03:13:08;;;;;;;9.63;6.03;;;;;;;17.12;nan;60912.41;4995241;28;20179;-66
2023/06/03 03:15:33;;;;;;;8.50;5.43;;;;;;;17.82;nan;61222.53;4995185;28;20553;-64
2023/06/03 03:17:59;;;;;;;10.20;5.53;;;;;;;18.03;nan;61303.06;4995158;28;20555;-66
2023/06/03 03:20:25;;;;;;;10.70;5.80;;;;;;;18.60;nan;61379.28;4994909;28;20176;-66
2023/06/03 03:22:50;;;;;;;8.30;4.85;;;;;;;18.51;nan;61436.94;4994637;28;20188;-65
2023/06/03 03:25:16;;;;;;;7.68;5.13;;;;;;;18.63;nan;61483.59;4995017;28;20184;-65
2023/06/03 03:27:41;;;;;;;7.70;4.95;;;;;;;18.85;nan;61528.66;4994969;28;20168;-65
2023/06/03 03:30:08;;;;;;;7.35;4.50;;;;;;;18.69;nan;61536.97;4994803;28;20303;-68
2023/06/03 03:32:35;;;;;;;8.07;4.97;;;;;;;18.99;nan;61570.38;4994973;28;20180;-63
2023/06/03 03:35:15;;;;;;;10.10;5.22;;;;;;;19.55;nan;61643.69;4994846;28;20256;-66
2023/06/03 03:37:41;;;;;;;9.70;5.40;;;;;;;19.69;nan;61646.03;4993633;28;20179;-66
2023/06/03 03:40:18;;;;;;;8.55;5.10;;;;;;;19.63;nan;61659.94;4994551;28;20259;-65
2023/06/03 03:42:52;;;;;;;10.82;4.68;;;;;;;19.97;nan;61757.59;4994767;28;20173;-67
2023/06/03 03:45:19;;;;;;;8.55;5.00;;;;;;;20.33;nan;61683.75;5009566;28;20271;-65
2023/06/03 03:47:50;;;;;;;9.35;5.07;;;;;;;20.45;nan;61863.47;4994951;28;20650;-66
2023/06/03 03:50:33;;;;;;;8.05;5.20;;;;;;;20.50;nan;61739.94;4994875;28;20258;-65
2023/06/03 03:53:03;;;;;;;6.35;4.25;;;;;;;20.28;nan;61730.53;4994462;28;20560;-66
2023/06/03 03:55:28;;;;;;;8.80;4.07;;;;;;;20.40;nan;61738.97;4994159;28;20264;-66
2023/06/03 03:57:54;;;;;;;10.18;4.85;;;;;;;20.60;nan;61789.66;4994179;28;20256;-66
2023/06/03 04:00:21;;;;;;;7.60;4.68;;;;;;;20.71;nan;61809.94;4993967;28;20820;-68
2023/06/03 04:02:49;;;;;;;8.15;4.57;;;;;;;20.28;nan;61746.66;4994359;28;20192;-64
2023/06/03 04:05:16;;;;;;;7.10;4.72;;;;;;;20.31;nan;61741.16;4994242;28;20188;-66
2023/06/03 04:07:43;;;;;;;8.57;4.50;;;;;;;20.31;nan;61767.69;4994313;28;20624;-66
2023/06/03 04:10:11;;;;;;;8.10;4.53;;;;;;;20.58;nan;61777.00;4992900;28;20710;-66
2023/06/03 04:12:36;;;;;;;7.55;4.80;;;;;;;20.61;nan;61806.38;4993761;28;20181;-65
2023/06/03 04:15:03;;;;;;;7.15;4.75;;;;;;;20.80;nan;61824.81;4994592;28;20227;-66
2023/06/03 04:17:30;;;;;;;7.57;4.70;;;;;;;20.92;nan;61817.66;4993294;28;20185;-65
2023/06/03 04:19:56;;;;;;;6.35;4.63;;;;;;;21.00;nan;61840.28;4994240;28;20227;-65
2023/06/03 04:22:24;;;;;;;6.70;4.43;;;;;;;21.20;nan;61818.28;4993787;28;20202;-67
2023/06/03 04:24:56;;;;;;;8.10;4.72;;;;;;;21.29;nan;61864.34;4993938;28;20175;-66
2023/06/03 04:27:22;;;;;;;10.70;4.97;;;;;;;21.13;nan;61847.28;4993732;28;20181;-66
2023/06/03 04:29:47;;;;;;;7.00;3.88;;;;;;;21.32;nan;61891.13;4993257;28;20636;-66
2023/06/03 04:32:13;;;;;;;8.38;4.57;;;;;;;21.72;nan;62110.91;4992817;28;20202;-64
2023/06/03 04:34:51;;;;;;;7.10;4.63;;;;;;;21.80;nan;61961.31;4993222;28;20176;-66
2023/06/03 04:37:17;;;;;;;8.30;4.40;;;;;;;22.23;nan;62007.13;4993468;28;20161;-66
2023/06/03 04:39:42;;;;;;;5.97;4.35;;;;;;;22.11;nan;61987.66;4993175;28;20557;-65
2023/06/03 04:42:07;;;;;;;7.05;4.35;;;;;;;22.27;nan;62027.28;4993373;28;20251;-69
2023/06/03 04:44:34;;;;;;;7.63;4.60;;;;;;;21.92;nan;61966.59;4993043;28;20235;-65
2023/06/03 04:47:00;;;;;;;6.53;4.63;;;;;;;22.23;nan;62210.16;4993086;28;20209;-66
2023/06/03 04:49:27;;;;;;;8.63;4.93;;;;;;;22.40;nan;62169.09;4993074;28;20180;-66
2023/06/03 04:51:52;;;;;;;7.00;4.63;;;;;;;22.79;nan;62059.34;4992912;28;20663;-66
2023/06/03 04:54:23;;;;;;;8.10;4.68;;;;;;;22.76;nan;62072.09;4993248;28;20183;-67
2023/06/03 04:56:52;;;;;;;6.80;4.80;;;;;;;23.10;nan;62079.00;4993186;28;20164;-67
2023/06/03 04:59:17;;;;;;;7.35;4.82;;;;;;;23.20;nan;62139.91;4993098;28;20183;-66
2023/06/03 05:01:44;;;;;;;7.60;4.80;;;;;;;23.29;nan;62149.59;4992780;28;20216;-66
2023/06/03 05:04:13;;;;;;;8.10;5.03;;;;;;;23.15;nan;62261.41;4993095;28;20177;-66
2023/06/03 05:06:39;;;;;;;10.85;6.43;;;;;;;22.59;nan;62020.91;4991322;28;20188;-66
2023/06/03 05:09:06;;;;;;;10.75;6.75;;;;;;;22.68;nan;62255.75;4992596;28;20169;-66
2023/06/03 05:11:31;;;;;;;11.18;7.50;;;;;;;22.36;nan;62006.28;4993166;28;20196;-66
2023/06/03 05:13:57;;;;;;;8.45;5.88;;;;;;;22.25;nan;61982.78;4992785;28;20648;-66
2023/06/03 05:16:22;;;;;;;8.32;5.10;;;;;;;22.45;nan;62250.34;4993065;28;20243;-65
2023/06/03 05:18:48;;;;;;;7.53;5.05;;;;;;;23.08;nan;62128.84;4993337;28;20655;-66
2023/06/03 05:21:17;;;;;;;7.07;4.63;;;;;;;23.26;nan;62110.25;4992894;28;20180;-67
2023/06/03 05:23:43;;;;;;;7.00;4.60;;;;;;;23.73;nan;62207.03;4992571;28;20575;-66
2023/06/03 05:26:08;;;;;;;6.80;4.15;;;;;;;23.67;nan;62184.56;4993410;28;20176;-66
2023/06/03 05:28:34;;;;;;;6.80;4.30;;;;;;;23.60;nan;62134.81;4993956;28;20179;-67
2023/06/03 05:30:59;;;;;;;8.93;4.78;;;;;;;23.53;nan;62195.25;4992987;28;20222;-67
2023/06/03 05:33:30;;;;;;;5.53;3.90;;;;;;;24.01;nan;62199.81;4992793;28;20227;-67
2023/06/03 05:35:56;;;;;;;5.95;4.00;;;;;;;24.51;nan;62269.34;4992665;28;20176;-61
2023/06/03 05:38:22;;;;;;;6.15;4.32;;;;;;;24.36;nan;62254.88;4992693;28;20181;-63
2023/06/03 05:40:48;;;;;;;5.85;4.28;;;;;;;24.02;nan;62310.03;4992419;28;20183;-62
2023/06/03 05:43:15;;;;;;;7.18;4.40;;;;;;;24.13;nan;62194.66;4992962;28;20208;-59
2023/06/03 05:45:41;;;;;;;6.57;3.85;;;;;;;23.62;nan;62197.69;4992475;28;20711;-60
2023/06/03 05:48:06;;;;;;;5.78;4.22;;;;;;;23.55;nan;62103.59;4992343;28;20179;-59
2023/06/03 05:50:39;;;;;;;5.38;3.95;;;;;;;23.53;nan;62098.72;4992274;28;20201;-60
2023/06/03 05:53:04;;;;;;;4.93;3.85;;;;;;;23.15;nan;62125.81;4992713;28;20260;-60
2023/06/03 05:55:31;;;;;;;5.88;4.10;;;;;;;22.94;nan;62086.25;4992549;28;20256;-59
2023/06/03 05:57:56;;;;;;;7.65;3.95;;;;;;;23.21;nan;62132.66;4992433;28;20175;-60
2023/06/03 06:00:22;;;;;;;7.00;4.28;;;;;;;23.18;nan;62131.84;4992472;28;20224;-59
2023/06/03 06:02:48;;;;;;;8.57;4.20;;;;;;;23.51;nan;62177.31;4991226;28;20181;-62
2023/06/03 06:05:14;;;;;;;6.50;3.70;;;;;;;23.54;nan;62183.34;4991655;28;20184;-62
2023/06/03 06:07:40;;;;;;;5.13;3.50;;;;;;;22.95;nan;62101.00;4992050;28;20168;-61
2023/06/03 06:10:06;;;;;;;6.82;3.80;;;;;;;22.74;nan;62064.63;4991958;28;20199;-61
2023/06/03 06:12:31;;;;;;;4.70;3.80;;;;;;;22.76;nan;62035.06;4991660;28;20173;-62
2023/06/03 06:14:57;;;;;;;4.93;3.50;;;;;;;22.62;nan;62063.38;4991733;28;20532;-62
2023/06/03 06:17:22;;;;;;;4.45;3.47;;;;;;;22.68;nan;62076.00;4991863;28;20641;-61
2023/06/03 06:19:48;;;;;;;6.65;4.32;;;;;;;23.22;nan;62113.50;4991674;28;20169;-61
2023/06/03 06:22:13;;;;;;;6.38;3.88;;;;;;;23.39;nan;62103.06;5007049;28;20173;-62
2023/06/03 06:24:39;;;;;;;6.05;3.83;;;;;;;23.51;nan;62386.00;4992135;28;20172;-63
2023/06/03 06:27:05;;;;;;;4.97;3.80;;;;;;;23.96;nan;62217.63;4991994;28;20165;-61
2023/06/03 06:29:32;;;;;;;6.05;4.13;;;;;;;24.06;nan;62246.72;4990957;28;20559;-61
2023/06/03 06:31:59;;;;;;;6.53;3.80;;;;;;;24.04;nan;62205.28;4991969;28;20179;-61
2023/06/03 06:34:29;;;;;;;5.75;3.78;;;;;;;24.17;nan;62252.03;4991621;28;20235;-60
2023/06/03 06:36:56;;;;;;;6.35;4.20;;;;;;;24.10;nan;62238.22;4990724;28;20180;-61
2023/06/03 06:39:34;;;;;;;8.00;4.00;;;;;;;24.37;nan;62237.72;4991490;28;20644;-61
2023/06/03 06:42:26;;;;;;;5.32;3.58;;;;;;;24.63;nan;62314.44;4991573;28;20181;-59
2023/06/03 06:44:52;;;;;;;4.25;3.42;;;;;;;24.73;nan;62333.13;4991365;28;20173;-61
2023/06/03 06:47:22;;;;;;;7.15;3.95;;;;;;;25.20;nan;62375.78;4991529;28;20172;-62
2023/06/03 06:49:49;;;;;;;5.95;4.15;;;;;;;25.32;nan;62397.34;4991609;28;20196;-66
2023/06/03 06:52:14;;;;;;;6.55;4.40;;;;;;;25.25;nan;62567.22;4991780;28;20179;-60
2023/06/03 06:54:41;;;;;;;5.18;4.05;;;;;;;25.09;nan;62381.53;4994057;28;20172;-62
2023/06/03 06:57:06;;;;;;;5.50;4.00;;;;;;;24.99;nan;62326.22;4994090;28;20235;-60
2023/06/03 06:59:32;;;;;;;8.23;4.43;;;;;;;25.14;nan;62408.16;4995003;28;20210;-60
2023/06/03 07:01:58;;;;;;;5.65;3.97;;;;;;;25.46;nan;62423.22;4995370;28;20704;-65
2023/06/03 07:04:24;;;;;;;7.80;3.75;;;;;;;25.82;nan;62411.47;4994466;28;20187;-62
2023/06/03 07:06:50;;;;;;;8.90;4.57;;;;;;;25.15;nan;62372.69;4995000;28;20522;-62
2023/06/03 07:09:15;;;;;;;6.00;4.03;;;;;;;25.47;nan;62390.94;4994745;28;20176;-59
2023/06/03 07:11:45;;;;;;;8.02;4.47;;;;;;;25.31;nan;62406.66;4995226;28;20543;-59
2023/06/03 07:14:11;;;;;;;8.50;4.00;;;;;;;25.51;nan;62424.28;4994938;28;20660;-60
2023/06/03 07:16:38;;;;;;;6.40;4.43;;;;;;;25.95;nan;62478.69;4994885;28;20169;-59
2023/06/03 07:19:04;;;;;;;6.43;4.28;;;;;;;25.87;nan;62500.97;4994270;28;20172;-62
2023/06/03 07:21:30;;;;;;;7.95;4.80;;;;;;;26.08;nan;62498.78;4987265;28;20200;-60
2023/06/03 07:23:56;;;;;;;9.15;4.68;;;;;;;26.12;nan;62506.00;4994666;28;20260;-60
2023/06/03 07:26:31;;;;;;;7.68;4.63;;;;;;;26.28;nan;62526.38;4994626;28;20556;-63
2023/06/03 07:28:57;;;;;;;12.20;4.78;;;;;;;26.32;nan;62551.91;4994399;28;20195;-59
2023/06/03 07:31:23;;;;;;;11.35;4.75;;;;;;;26.55;nan;62612.31;4994742;28;20775;-61
2023/06/03 07:33:51;;;;;;;6.40;4.40;;;;;;;26.68;nan;62669.16;4994380;28;20251;-62
2023/06/03 07:36:20;;;;;;;6.95;4.60;;;;;;;26.78;nan;62609.81;4994453;28;20173;-62
2023/06/03 07:38:55;;;;;;;7.13;4.60;;;;;;;27.09;nan;62584.44;4994569;28;20181;-62
2023/06/03 07:41:31;;;;;;;7.20;4.63;;;;;;;27.15;nan;62682.56;4994003;28;20179;-61
2023/06/03 07:43:57;;;;;;;8.85;4.70;;;;;;;27.05;nan;62561.47;4994467;28;20291;-61
2023/06/03 07:46:37;;;;;;;7.05;4.78;;;;;;;26.97;nan;62627.84;4994278;28;20184;-61
2023/06/03 07:49:04;;;;;;;6.82;4.70;;;;;;;27.12;nan;62587.28;4994152;28;20260;-62
2023/06/03 07:51:29;;;;;;;6.70;4.60;;;;;;;27.46;nan;62725.41;4993947;28;20291;-60
2023/06/03 07:53:55;;;;;;;6.47;4.40;;;;;;;27.49;nan;62841.78;4994149;28;20763;-59
2023/06/03 07:56:21;;;;;;;8.00;4.60;;;;;;;27.46;nan;62849.41;4993944;28;20554;-59
2023/06/03 07:58:47;;;;;;;6.57;4.53;;;;;;;27.85;nan;62762.28;4994173;28;20207;-61
2023/06/03 08:01:16;;;;;;;7.40;4.60;;;;;;;27.84;nan;62734.84;4994007;28;20374;-61
2023/06/03 08:03:41;;;;;;;6.57;4.35;;;;;;;27.66;nan;62730.56;4993744;28;20200;-60
2023/06/03 08:06:08;;;;;;;6.28;4.43;;;;;;;27.90;nan;62896.19;4992725;28;20262;-61
2023/06/03 08:08:33;;;;;;;6.90;4.32;;;;;;;28.22;nan;62804.16;4993726;28;20180;-64
2023/06/03 08:11:02;;;;;;;6.40;4.32;;;;;;;28.45;nan;62888.41;4992834;28;20204;-63
2023/06/03 08:13:28;;;;;;;8.25;4.50;;;;;;;28.32;nan;62809.81;4993477;28;20220;-60
2023/06/03 08:15:54;;;;;;;6.35;4.32;;;;;;;28.59;nan;62875.00;4992974;28;20177;-61
2023/06/03 08:18:25;;;;;;;6.75;4.45;;;;;;;28.60;nan;62872.94;4993200;28;20183;-60
2023/06/03 08:20:51;;;;;;;5.85;4.60;;;;;;;28.71;nan;62875.66;4992845;28;20172;-60
2023/06/03 08:23:16;;;;;;;5.78;4.15;;;;;;;28.50;nan;62894.16;4992699;28;20164;-60
2023/06/03 08:25:42;;;;;;;5.63;4.22;;;;;;;28.72;nan;62845.22;4993175;28;20179;-60
2023/06/03 08:28:08;;;;;;;6.95;4.10;;;;;;;28.81;nan;63081.84;4993286;28;20195;-61
2023/06/03 08:30:33;;;;;;;6.82;4.45;;;;;;;28.94;nan;62859.38;4993313;28;20195;-59
2023/06/03 08:32:59;;;;;;;5.72;4.28;;;;;;;29.07;nan;62942.16;4993334;28;20267;-59
2023/06/03 08:35:24;;;;;;;6.28;4.45;;;;;;;28.93;nan;62935.13;4993000;28;20616;-61
2023/06/03 08:37:50;;;;;;;5.43;4.25;;;;;;;29.28;nan;62979.44;4992716;28;20605;-60
2023/06/03 08:40:21;;;;;;;6.15;4.22;;;;;;;29.38;nan;62977.81;4993250;28;20157;-61
2023/06/03 08:42:48;;;;;;;6.03;4.18;;;;;;;29.31;nan;62964.50;4993095;28;20171;-61
2023/06/03 08:45:19;;;;;;;7.30;4.30;;;;;;;29.41;nan;62991.78;4992944;28;20172;-61
2023/06/03 08:47:50;;;;;;;6.93;4.43;;;;;;;28.90;nan;62912.69;4993021;28;20168;-62
2023/06/03 08:50:20;;;;;;;6.28;4.38;;;;;;;28.18;nan;62775.91;4992673;28;20188;-61
2023/06/03 08:52:47;;;;;;;6.03;4.35;;;;;;;28.34;nan;62856.81;4993053;28;20223;-62
2023/06/03 08:55:16;;;;;;;7.05;4.30;;;;;;;28.66;nan;63054.03;4993022;28;20165;-60
2023/06/03 08:58:14;;;;;;;5.90;4.32;;;;;;;28.83;nan;62859.91;4991985;28;20350;-61
2023/06/03 09:00:42;;;;;;;8.60;4.45;;;;;;;28.06;nan;62764.78;4992750;28;20323;-60
2023/06/03 09:03:12;;;;;;;7.20;3.97;;;;;;;28.41;nan;63051.56;4992543;28;20167;-61
2023/06/03 09:05:38;;;;;;;5.38;3.95;;;;;;;28.30;nan;62844.34;4992891;28;20168;-61
2023/06/03 09:08:05;;;;;;;8.25;4.45;;;;;;;28.80;nan;62883.34;4992464;28;20172;-61
2023/06/03 09:10:32;;;;;;;5.60;4.18;;;;;;;28.71;nan;62907.22;4992455;28;20570;-62
2023/06/03 09:13:02;;;;;;;6.45;4.43;;;;;;;28.87;nan;62909.81;4992712;28;20191;-59
2023/06/03 09:15:29;;;;;;;6.85;4.40;;;;;;;29.21;nan;63084.66;4992311;28;20199;-61
2023/06/03 09:17:55;;;;;;;7.57;4.50;;;;;;;29.30;nan;62977.09;4992080;28;20183;-60
2023/06/03 09:20:20;;;;;;;6.13;4.47;;;;;;;29.48;nan;63123.06;4992383;28;20259;-60
2023/06/03 09:22:46;;;;;;;6.18;4.38;;;;;;;29.85;nan;63023.38;4992167;28;20727;-61
2023/06/03 09:25:12;;;;;;;6.07;4.45;;;;;;;29.85;nan;63290.19;4992149;28;20616;-60
2023/06/03 09:27:39;;;;;;;6.65;4.78;;;;;;;29.69;nan;63010.81;4992337;28;20180;-61
2023/06/03 09:30:06;;;;;;;6.18;4.85;;;;;;;29.92;nan;63062.50;4991688;28;20558;-60
2023/06/03 09:32:36;;;;;;;8.90;4.72;;;;;;;30.09;nan;63071.50;4992087;28;20628;-60
2023/06/03 09:35:05;;;;;;;12.48;4.65;;;;;;;29.60;nan;63015.69;4992531;28;20167;-61
2023/06/03 09:37:34;;;;;;;7.10;4.63;;;;;;;29.38;nan;62993.59;4992188;28;20187;-60
2023/06/03 09:40:05;;;;;;;7.15;5.00;;;;;;;28.78;nan;62899.47;4992015;28;20180;-62
2023/06/03 09:42:44;;;;;;;6.18;4.70;;;;;;;28.44;nan;62847.81;4991853;28;20226;-62
2023/06/03 09:45:26;;;;;;;6.45;4.22;;;;;;;28.66;nan;62874.56;4992083;28;20230;-62
2023/06/03 09:47:52;;;;;;;7.47;4.45;;;;;;;28.77;nan;62911.47;4991894;28;20234;-59
2023/06/03 09:50:18;;;;;;;7.10;4.65;;;;;;;28.67;nan;62880.97;4991736;28;20196;-60
2023/06/03 09:52:44;;;;;;;6.00;4.25;;;;;;;29.24;nan;62949.09;4991581;28;20655;-60
2023/06/03 09:55:10;;;;;;;7.10;4.43;;;;;;;29.32;nan;62965.63;4991802;28;20183;-61
2023/06/03 09:57:37;;;;;;;6.65;4.72;;;;;;;29.26;nan;62951.41;4991825;28;20266;-60
2023/06/03 10:00:09;;;;;;;7.60;4.80;;;;;;;28.65;nan;62879.25;4991811;28;20271;-61
2023/06/03 10:02:44;;;;;;;5.07;4.10;;;;;;;28.06;nan;62767.97;4991649;28;20667;-60
2023/06/03 10:05:28;;;;;;;6.15;4.28;;;;;;;28.22;nan;62777.31;4991460;28;20171;-62
2023/06/03 10:07:55;;;;;;;7.50;4.63;;;;;;;28.23;nan;62807.38;4991409;28;20164;-60
2023/06/03 10:10:20;;;;;;;6.22;3.92;;;;;;;28.88;nan;62876.75;4990095;28;20298;-59
2023/06/03 10:12:48;;;;;;;6.78;4.03;;;;;;;29.23;nan;62963.75;4992116;28;20184;-61
2023/06/03 10:15:32;;;;;;;8.10;4.65;;;;;;;28.82;nan;62935.63;4992082;28;20670;-61
2023/06/03 10:17:58;;;;;;;6.00;4.22;;;;;;;28.96;nan;62893.25;4992124;28;20160;-62
2023/06/03 10:20:38;;;;;;;6.85;4.30;;;;;;;28.59;nan;62846.06;4992127;28;20171;-60
2023/06/03 10:23:06;;;;;;;5.85;4.38;;;;;;;28.66;nan;62877.19;4992249;28;20171;-60
2023/06/03 10:25:38;;;;;;;6.28;4.45;;;;;;;28.73;nan;62893.72;4992069;28;20161;-60
2023/06/03 10:28:04;;;;;;;5.70;4.18;;;;;;;29.25;nan;62960.78;4991909;28;20284;-62
2023/06/03 10:30:30;;;;;;;5.72;4.00;;;;;;;29.45;nan;63014.84;4994100;28;20236;-60
2023/06/03 10:32:57;;;;;;;5.97;4.15;;;;;;;29.01;nan;62932.63;4995715;28;20164;-60
2023/06/03 10:35:23;;;;;;;9.18;4.45;;;;;;;27.89;nan;62753.16;4995071;28;20251;-60
2023/06/03 10:37:49;;;;;;;5.50;3.85;;;;;;;28.02;nan;62744.97;4995414;28;20207;-61
2023/06/03 10:40:15;;;;;;;7.35;4.35;;;;;;;28.05;nan;62801.00;4995401;28;20331;-61
2023/06/03 10:42:42;;;;;;;7.15;4.45;;;;;;;27.30;nan;62680.81;4995091;28;20262;-61
2023/06/03 10:45:08;;;;;;;5.60;4.25;;;;;;;28.28;nan;62850.50;4995452;28;20173;-62
2023/06/03 10:47:37;;;;;;;5.50;4.03;;;;;;;28.92;nan;62920.81;4995558;28;20306;-60
2023/06/03 10:50:18;;;;;;;6.28;4.43;;;;;;;29.23;nan;62971.06;4995425;28;20196;-61
2023/06/03 10:53:24;;;;;;;6.35;4.57;;;;;;;28.59;nan;62856.00;4995121;28;20271;-61
2023/06/03 10:56:30;;;;;;;5.32;3.90;;;;;;;28.14;nan;62762.88;5004481;28;20188;-60
2023/06/03 10:59:04;;;;;;;6.78;4.25;;;;;;;27.87;nan;62758.75;5012311;28;20183;-61
2023/06/03 11:01:58;;;;;;;4.93;3.88;;;;;;;27.99;nan;62770.44;4997092;28;20228;-61
2023/06/03 11:04:24;;;;;;;5.55;3.78;;;;;;;27.45;nan;62640.25;4995039;28;20180;-61
2023/06/03 11:06:50;;;;;;;5.75;4.05;;;;;;;27.54;nan;62697.84;4994895;28;20191;-60
2023/06/03 11:09:35;;;;;;;6.70;4.38;;;;;;;27.73;nan;62740.63;4995086;28;20181;-61
2023/06/03 11:12:09;;;;;;;6.03;4.18;;;;;;;27.24;nan;62656.72;4994869;28;20176;-61
2023/06/03 11:14:39;;;;;;;7.13;4.70;;;;;;;27.83;nan;62696.94;4994766;28;20199;-62
2023/06/03 11:17:05;;;;;;;6.32;4.30;;;;;;;27.83;nan;62683.81;4994789;28;20173;-62
2023/06/03 11:19:31;;;;;;;7.70;4.28;;;;;;;28.04;nan;62723.63;4994630;28;20539;-61
2023/06/03 11:22:00;;;;;;;5.20;3.85;;;;;;;27.52;nan;62743.38;4994594;28;20539;-62
2023/06/03 11:24:37;;;;;;;5.05;4.05;;;;;;;27.78;nan;62711.66;4994211;28;20235;-61
2023/06/03 11:27:24;;;;;;;6.25;4.05;;;;;;;27.74;nan;62760.19;4994632;28;20204;-63
2023/06/03 11:29:49;;;;;;;5.07;3.78;;;;;;;27.51;nan;62657.66;4994105;28;20294;-61
2023/06/03 11:32:27;;;;;;;6.38;3.83;;;;;;;27.86;nan;62781.25;4993852;28;20216;-61
2023/06/03 11:35:04;;;;;;;5.88;4.38;;;;;;;28.34;nan;62796.91;4994451;28;20219;-61
2023/06/03 11:37:48;;;;;;;5.18;3.80;;;;;;;28.13;nan;62806.97;4993867;28;20599;-61
2023/06/03 11:40:17;;;;;;;5.78;3.88;;;;;;;28.36;nan;62780.22;4994035;28;20683;-60
2023/06/03 11:42:48;;;;;;;4.85;3.45;;;;;;;28.49;nan;62874.03;4994041;28;20173;-61
2023/06/03 11:45:24;;;;;;;5.60;3.95;;;;;;;28.01;nan;62738.00;4993361;28;20203;-60
2023/06/03 11:47:54;;;;;;;5.80;3.30;;;;;;;27.58;nan;62710.31;4994291;28;20263;-61
2023/06/03 11:50:21;;;;;;;5.30;3.35;;;;;;;27.88;nan;62723.69;4994121;28;20249;-62
2023/06/03 11:52:47;;;;;;;4.97;3.67;;;;;;;27.77;nan;62771.50;4994060;28;20271;-61